Time;durP1;ratioP1;P1;durP2;ratioP2;P2;SDS_P1;SDS_P2;PMS_P1;PMS_P2;Temp;Humidity;BMP_temperature;BMP_pressure;BME280_temperature;BME280_humidity;BME280_pressure;Samples;Min_cycle;Max_cycle;Signal;HPM_P1;HPM_P2
2022/02/07 00:04:55;;;;;;;18.20;6.85;;;;;;;;;;10328017;28;20034;-58
2022/02/07 00:09:55;;;;;;;22.30;7.88;;;;;;;;;;10327033;28;20030;-58
2022/02/07 00:14:56;;;;;;;23.10;7.70;;;;;;;;;;10325749;28;20034;-58
2022/02/07 00:19:59;;;;;;;15.83;7.03;;;;;;;;;;10335839;28;20528;-58
2022/02/07 00:24:59;;;;;;;18.95;8.23;;;;;;;;;;10335656;28;20030;-58
2022/02/07 00:29:59;;;;;;;12.67;7.33;;;;;;;;;;10334790;28;20490;-58
2022/02/07 00:35:00;;;;;;;15.25;7.45;;;;;;;;;;10335349;28;20496;-58
2022/02/07 00:40:25;;;;;;;11.77;7.88;;;;;;;;;;10335550;28;20368;-58
2022/02/07 00:50:34;;;;;;;14.88;7.30;;;;;;;;;;10334364;28;20027;-58
2022/02/07 00:55:34;;;;;;;10.15;7.20;;;;;;;;;;10334508;28;20026;-58
2022/02/07 01:00:35;;;;;;;14.80;7.40;;;;;;;;;;10333703;28;20061;-58
2022/02/07 01:05:36;;;;;;;11.77;6.63;;;;;;;;;;10334079;28;20892;-58
2022/02/07 01:11:17;;;;;;;17.20;7.20;;;;;;;;;;10332808;28;20034;-58
2022/02/07 01:21:49;;;;;;;15.98;7.68;;;;;;;;;;10333597;28;20035;-58
2022/02/07 01:48:30;;;;;;;11.75;6.32;;;;;;;;;;10366516;28;20482;-58
2022/02/07 01:58:37;;;;;;;17.83;7.72;;;;;;;;;;10350826;28;20018;-57
2022/02/07 02:03:37;;;;;;;10.45;6.40;;;;;;;;;;10334779;28;20471;-58
2022/02/07 02:08:38;;;;;;;11.03;6.20;;;;;;;;;;10331358;28;20026;-58
2022/02/07 02:45:32;;;;;;;;;;;;;;;;;;10331033;28;20346;-59
2022/02/07 02:50:35;;;;;;;10.40;5.72;;;;;;;;;;10330099;28;19925;-59
2022/02/07 02:55:38;;;;;;;13.52;5.57;;;;;;;;;;10329546;28;20022;-59
2022/02/07 03:00:40;;;;;;;9.65;6.35;;;;;;;;;;10329382;28;20031;-59
2022/02/07 03:05:44;;;;;;;9.60;6.13;;;;;;;;;;10329095;28;20088;-60
2022/02/07 03:21:05;;;;;;;8.13;5.22;;;;;;;;;;10328400;28;20066;-58
2022/02/07 03:26:05;;;;;;;8.68;5.47;;;;;;;;;;10325859;28;20030;-57
2022/02/07 03:31:07;;;;;;;14.03;6.47;;;;;;;;;;10328047;28;20069;-57
2022/02/07 03:36:08;;;;;;;7.75;5.50;;;;;;;;;;10325507;28;20532;-58
2022/02/07 03:41:08;;;;;;;9.35;5.57;;;;;;;;;;10328488;28;20431;-57
2022/02/07 03:46:08;;;;;;;9.40;6.10;;;;;;;;;;10328316;28;20038;-58
2022/02/07 03:51:09;;;;;;;10.18;5.78;;;;;;;;;;10326874;28;20451;-58
2022/02/07 03:56:09;;;;;;;8.17;5.57;;;;;;;;;;10327610;28;20505;-58
2022/02/07 04:01:10;;;;;;;7.18;5.03;;;;;;;;;;10327476;28;20432;-58
2022/02/07 04:06:17;;;;;;;8.73;5.28;;;;;;;;;;10327226;28;20035;-58
2022/02/07 04:16:26;;;;;;;10.38;6.05;;;;;;;;;;10327393;28;20026;-58
2022/02/07 04:21:29;;;;;;;10.13;5.43;;;;;;;;;;10327415;28;20023;-58
2022/02/07 04:26:30;;;;;;;7.22;5.13;;;;;;;;;;10327479;28;20045;-58
2022/02/07 04:31:30;;;;;;;9.47;5.67;;;;;;;;;;10326778;28;20053;-58
2022/02/07 04:36:31;;;;;;;9.50;5.10;;;;;;;;;;10324363;28;20565;-57
2022/02/07 04:41:31;;;;;;;8.18;5.57;;;;;;;;;;10327130;28;20081;-58
2022/02/07 04:46:48;;;;;;;7.63;5.35;;;;;;;;;;10324209;28;20081;-57
2022/02/07 04:57:09;;;;;;;9.00;5.32;;;;;;;;;;10326613;28;20030;-58
2022/02/07 05:18:08;;;;;;;7.93;5.57;;;;;;;;;;10333473;28;20408;-57
2022/02/07 05:23:08;;;;;;;9.03;5.33;;;;;;;;;;10333086;28;20022;-58
2022/02/07 05:28:08;;;;;;;8.60;5.60;;;;;;;;;;10333162;28;20986;-57
2022/02/07 05:33:09;;;;;;;10.43;6.40;;;;;;;;;;10332546;28;20497;-58
2022/02/07 05:38:10;;;;;;;11.63;7.40;;;;;;;;;;10332623;28;20112;-58
2022/02/07 05:43:13;;;;;;;14.15;8.30;;;;;;;;;;10329537;28;20118;-58
2022/02/07 05:48:14;;;;;;;14.02;8.57;;;;;;;;;;10329672;28;20018;-58
2022/02/07 05:53:14;;;;;;;16.40;9.90;;;;;;;;;;10331916;28;20483;-57
2022/02/07 05:58:15;;;;;;;16.03;9.40;;;;;;;;;;10331137;28;20453;-58
2022/02/07 06:03:15;;;;;;;19.95;10.75;;;;;;;;;;10331573;28;20030;-58
2022/02/07 06:08:17;;;;;;;15.77;10.33;;;;;;;;;;10331613;28;20037;-58
2022/02/07 06:13:18;;;;;;;19.15;10.00;;;;;;;;;;10313593;28;20476;-58
2022/02/07 06:18:20;;;;;;;17.05;11.30;;;;;;;;;;10330432;28;20054;-58
2022/02/07 06:23:20;;;;;;;16.15;9.95;;;;;;;;;;10330277;28;20443;-58
2022/02/07 06:28:20;;;;;;;18.25;10.77;;;;;;;;;;10330170;28;20022;-58
2022/02/07 06:33:21;;;;;;;18.00;10.70;;;;;;;;;;10330203;28;20500;-59
2022/02/07 06:38:22;;;;;;;18.50;10.60;;;;;;;;;;10330704;28;20026;-58
2022/02/07 06:43:22;;;;;;;17.20;10.07;;;;;;;;;;10329755;28;20121;-59
2022/02/07 06:48:23;;;;;;;18.08;10.23;;;;;;;;;;10327354;28;20053;-59
2022/02/07 06:53:23;;;;;;;20.35;9.63;;;;;;;;;;10330052;28;20029;-58
2022/02/07 06:58:23;;;;;;;18.30;10.07;;;;;;;;;;10326286;28;20022;-59
2022/02/07 07:03:25;;;;;;;29.20;9.25;;;;;;;;;;10329147;28;20569;-59
2022/02/07 07:08:26;;;;;;;18.38;9.77;;;;;;;;;;10327099;28;20026;-59
2022/02/07 07:13:38;;;;;;;18.52;10.57;;;;;;;;;;10328574;28;20410;-59
2022/02/07 07:18:38;;;;;;;21.85;10.52;;;;;;;;;;10328849;28;20027;-60
2022/02/07 07:23:39;;;;;;;18.20;9.93;;;;;;;;;;10328117;28;20478;-62
2022/02/07 07:28:41;;;;;;;27.15;10.73;;;;;;;;;;10326022;28;20618;-60
2022/02/07 07:33:43;;;;;;;23.10;9.65;;;;;;;;;;10328091;28;20341;-61
2022/02/07 07:38:44;;;;;;;18.50;10.70;;;;;;;;;;10327706;28;20394;-61
2022/02/07 07:43:47;;;;;;;24.80;10.83;;;;;;;;;;10328297;28;20041;-61
2022/02/07 07:48:55;;;;;;;14.60;9.13;;;;;;;;;;10327113;28;20778;-61
2022/02/07 08:04:35;;;;;;;20.40;9.95;;;;;;;;;;10324201;28;20410;-60
2022/02/07 08:09:48;;;;;;;19.58;9.05;;;;;;;;;;10327299;28;20022;-60
2022/02/07 08:14:49;;;;;;;17.23;9.07;;;;;;;;;;10326929;28;20494;-60
2022/02/07 08:19:51;;;;;;;15.95;9.02;;;;;;;;;;10326768;28;20033;-61
2022/02/07 08:24:55;;;;;;;19.98;8.80;;;;;;;;;;10325897;28;20382;-59
2022/02/07 08:29:57;;;;;;;17.90;9.85;;;;;;;;;;10326131;28;20034;-62
2022/02/07 08:35:00;;;;;;;20.33;8.95;;;;;;;;;;10329980;28;20041;-61
2022/02/07 08:40:01;;;;;;;15.50;8.35;;;;;;;;;;10334645;28;20474;-61
2022/02/07 08:45:01;;;;;;;16.75;8.70;;;;;;;;;;10333474;28;20267;-60
2022/02/07 08:50:03;;;;;;;20.73;9.23;;;;;;;;;;10334298;28;20116;-60
2022/02/07 08:55:05;;;;;;;18.73;8.88;;;;;;;;;;10334089;28;20448;-60
2022/02/07 09:10:14;;;;;;;13.10;8.88;;;;;;;;;;10330788;28;20057;-60
2022/02/07 09:20:29;;;;;;;11.93;8.20;;;;;;;;;;10332279;28;20030;-60
2022/02/07 09:25:29;;;;;;;14.57;9.18;;;;;;;;;;10347564;28;20033;-60
2022/02/07 09:30:30;;;;;;;12.90;8.53;;;;;;;;;;10330589;28;20053;-60
2022/02/07 09:35:31;;;;;;;13.35;8.50;;;;;;;;;;10331268;28;20440;-59
2022/02/07 09:40:31;;;;;;;20.33;9.48;;;;;;;;;;10332711;28;20026;-60
2022/02/07 09:45:35;;;;;;;14.53;8.57;;;;;;;;;;10331392;28;20041;-61
2022/02/07 09:50:37;;;;;;;15.98;9.48;;;;;;;;;;10332084;28;20531;-60
2022/02/07 09:55:37;;;;;;;15.52;8.93;;;;;;;;;;10331047;28;20064;-60
2022/02/07 10:00:38;;;;;;;14.77;9.18;;;;;;;;;;10315050;28;20050;-60
2022/02/07 10:05:51;;;;;;;13.57;9.15;;;;;;;;;;10331838;28;20478;-60
2022/02/07 10:21:42;;;;;;;17.77;10.13;;;;;;;;;;10331818;28;20030;-60
2022/02/07 10:48:34;;;;;;;10.00;4.75;;;;;;;;;;10325619;28;19920;-61
2022/02/07 10:53:39;;;;;;;15.73;4.40;;;;;;;;;;10328568;28;20030;-60
2022/02/07 10:58:40;;;;;;;9.55;3.67;;;;;;;;;;10329445;28;20061;-61
2022/02/07 11:03:45;;;;;;;7.70;3.80;;;;;;;;;;10329944;28;20058;-60
2022/02/07 11:09:04;;;;;;;17.83;3.42;;;;;;;;;;10329725;28;20103;-60
2022/02/07 11:19:28;;;;;;;15.00;3.05;;;;;;;;;;10326406;28;20046;-60
2022/02/07 11:24:36;;;;;;;17.40;3.33;;;;;;;;;;10327657;28;20374;-61
2022/02/07 11:29:38;;;;;;;21.13;3.53;;;;;;;;;;10328613;28;20050;-60
2022/02/07 11:34:43;;;;;;;11.20;3.45;;;;;;;;;;10328443;28;20109;-60
2022/02/07 11:39:48;;;;;;;17.98;3.03;;;;;;;;;;10328285;28;20090;-60
2022/02/07 11:44:52;;;;;;;14.60;2.60;;;;;;;;;;10328475;28;20111;-60
2022/02/07 11:49:56;;;;;;;18.33;3.08;;;;;;;;;;10327858;28;20022;-60
2022/02/07 11:55:09;;;;;;;8.40;2.40;;;;;;;;;;10328141;28;20031;-60
2022/02/07 12:00:18;;;;;;;9.45;1.90;;;;;;;;;;10327796;28;20041;-60
2022/02/07 12:05:20;;;;;;;11.40;2.30;;;;;;;;;;10327021;28;20034;-60
2022/02/07 12:15:44;;;;;;;6.20;1.98;;;;;;;;;;10324027;28;20065;-60
2022/02/07 12:20:48;;;;;;;3.95;2.03;;;;;;;;;;10327018;28;20121;-61
2022/02/07 12:25:56;;;;;;;2.92;2.00;;;;;;;;;;10324112;28;20512;-60
2022/02/07 12:36:10;;;;;;;4.78;2.00;;;;;;;;;;10328118;28;20470;-62
2022/02/07 12:41:14;;;;;;;2.10;1.50;;;;;;;;;;10326691;28;20026;-60
2022/02/07 12:46:17;;;;;;;5.18;1.88;;;;;;;;;;10326799;28;20089;-60
2022/02/07 12:51:23;;;;;;;7.57;1.55;;;;;;;;;;10326109;28;20028;-60
2022/02/07 12:56:27;;;;;;;2.33;1.33;;;;;;;;;;10324603;28;20034;-60
2022/02/07 13:01:35;;;;;;;5.07;1.50;;;;;;;;;;10326641;28;20106;-60
2022/02/07 13:06:39;;;;;;;2.50;1.27;;;;;;;;;;10326640;28;20030;-60
2022/02/07 13:11:47;;;;;;;3.72;1.50;;;;;;;;;;10325812;28;20027;-61
2022/02/07 13:16:47;;;;;;;3.30;1.17;;;;;;;;;;10325590;28;20049;-60
2022/02/07 13:21:52;;;;;;;1.90;1.13;;;;;;;;;;10329565;28;20022;-60
2022/02/07 13:26:55;;;;;;;3.35;1.40;;;;;;;;;;10330031;28;20030;-60
2022/02/07 13:32:04;;;;;;;0.98;0.98;;;;;;;;;;10329244;28;20529;-60
2022/02/07 13:37:13;;;;;;;;;;;;;;;;;;10332615;28;20026;-60
2022/02/07 13:42:15;;;;;;;5.68;1.15;;;;;;;;;;10332128;28;19913;-60
2022/02/07 13:47:15;;;;;;;3.17;1.33;;;;;;;;;;10331526;28;20029;-60
2022/02/07 13:52:17;;;;;;;2.78;1.30;;;;;;;;;;10330409;28;20029;-60
2022/02/07 13:57:18;;;;;;;1.83;1.17;;;;;;;;;;10345758;28;20034;-60
2022/02/07 14:02:26;;;;;;;7.13;1.60;;;;;;;;;;10330887;28;20018;-61
2022/02/07 14:07:27;;;;;;;1.95;1.15;;;;;;;;;;10331146;28;20030;-59
2022/02/07 14:12:27;;;;;;;2.22;1.00;;;;;;;;;;10329743;28;20474;-59
2022/02/07 14:17:28;;;;;;;9.57;1.08;;;;;;;;;;10329452;28;20038;-59
2022/02/07 14:22:35;;;;;;;1.47;1.00;;;;;;;;;;10328302;28;20577;-59
2022/02/07 14:27:35;;;;;;;0.82;0.82;;;;;;;;;;10328023;28;20452;-59
2022/02/07 14:32:35;;;;;;;6.80;1.13;;;;;;;;;;10308016;28;20053;-59
2022/02/07 14:37:36;;;;;;;7.40;0.80;;;;;;;;;;10329289;28;20113;-59
2022/02/07 14:42:37;;;;;;;2.43;1.03;;;;;;;;;;10329700;28;20023;-59
2022/02/07 14:52:50;;;;;;;4.78;1.00;;;;;;;;;;10330402;28;20034;-59
2022/02/07 14:57:51;;;;;;;1.63;1.00;;;;;;;;;;10329371;28;20030;-59
2022/02/07 15:02:52;;;;;;;3.90;0.95;;;;;;;;;;10329290;28;20478;-59
2022/02/07 15:07:54;;;;;;;2.15;1.10;;;;;;;;;;10328783;28;20528;-59
2022/02/07 15:12:54;;;;;;;3.90;1.00;;;;;;;;;;10328608;28;20030;-59
2022/02/07 15:17:57;;;;;;;2.95;0.80;;;;;;;;;;10328912;28;20452;-59
2022/02/07 15:22:57;;;;;;;4.03;0.90;;;;;;;;;;10328437;28;20061;-60
2022/02/07 15:27:59;;;;;;;2.33;0.80;;;;;;;;;;10328178;28;20073;-59
2022/02/07 15:33:00;;;;;;;1.35;0.95;;;;;;;;;;10323557;28;20080;-60
2022/02/07 15:38:01;;;;;;;0.85;0.70;;;;;;;;;;10324780;28;20050;-59
2022/02/07 15:43:01;;;;;;;0.70;0.70;;;;;;;;;;10327231;28;20030;-59
2022/02/07 15:48:02;;;;;;;1.45;0.90;;;;;;;;;;10328218;28;20419;-59
2022/02/07 15:53:04;;;;;;;5.00;1.00;;;;;;;;;;10327522;28;20041;-60
2022/02/07 15:58:05;;;;;;;1.95;0.98;;;;;;;;;;10327612;28;20592;-59
2022/02/07 16:03:05;;;;;;;1.70;1.00;;;;;;;;;;10326887;28;20249;-59
2022/02/07 16:08:08;;;;;;;2.60;0.90;;;;;;;;;;10326904;28;20031;-59
2022/02/07 16:13:18;;;;;;;1.00;0.75;;;;;;;;;;10327839;28;20118;-59
2022/02/07 16:18:20;;;;;;;4.18;0.95;;;;;;;;;;10327512;28;20230;-59
2022/02/07 16:23:22;;;;;;;0.85;0.80;;;;;;;;;;10327155;28;20030;-59
2022/02/07 16:28:22;;;;;;;1.05;0.88;;;;;;;;;;10326580;28;20025;-59
2022/02/07 16:33:26;;;;;;;0.77;0.65;;;;;;;;;;10325999;28;20054;-59
2022/02/07 16:38:26;;;;;;;2.25;1.00;;;;;;;;;;10323786;28;20121;-59
2022/02/07 16:43:30;;;;;;;1.03;0.80;;;;;;;;;;10326359;28;20045;-59
2022/02/07 16:48:31;;;;;;;0.98;0.77;;;;;;;;;;10323436;28;20046;-59
2022/02/07 16:53:31;;;;;;;2.23;0.70;;;;;;;;;;10326069;28;20465;-60
2022/02/07 16:58:31;;;;;;;0.70;0.70;;;;;;;;;;10330288;28;20440;-59
2022/02/07 17:03:32;;;;;;;0.90;0.90;;;;;;;;;;10331770;28;20057;-59
2022/02/07 17:08:32;;;;;;;1.10;1.00;;;;;;;;;;10332160;28;21035;-60
2022/02/07 17:13:33;;;;;;;1.23;0.95;;;;;;;;;;10332970;28;20394;-59
2022/02/07 17:18:33;;;;;;;3.20;1.08;;;;;;;;;;10333269;28;20053;-59
2022/02/07 17:23:34;;;;;;;2.28;1.10;;;;;;;;;;10333291;28;20030;-60
2022/02/07 17:28:36;;;;;;;2.70;1.27;;;;;;;;;;10333485;28;20585;-60
2022/02/07 17:33:40;;;;;;;1.88;1.20;;;;;;;;;;10333449;28;20054;-59
2022/02/07 17:38:40;;;;;;;1.92;1.38;;;;;;;;;;10331713;28;20471;-59
2022/02/07 17:43:51;;;;;;;1.80;1.10;;;;;;;;;;10332107;28;20034;-60
2022/02/07 17:48:57;;;;;;;3.67;1.40;;;;;;;;;;10328487;28;20217;-59
2022/02/07 17:53:59;;;;;;;4.75;1.42;;;;;;;;;;10328830;28;20042;-59
2022/02/07 17:58:59;;;;;;;10.75;1.80;;;;;;;;;;10331342;28;20034;-59
2022/02/07 18:04:01;;;;;;;3.28;1.85;;;;;;;;;;10331185;28;20040;-60
2022/02/07 18:09:02;;;;;;;5.50;1.55;;;;;;;;;;10329989;28;20026;-59
2022/02/07 18:14:02;;;;;;;3.33;1.60;;;;;;;;;;10364905;22;20053;-59
2022/02/07 18:19:04;;;;;;;3.05;1.80;;;;;;;;;;10370809;28;20084;-60
2022/02/07 18:24:08;;;;;;;4.32;2.00;;;;;;;;;;10370512;28;20124;-60
2022/02/07 18:29:09;;;;;;;3.10;1.92;;;;;;;;;;10370548;28;20026;-61
2022/02/07 18:34:09;;;;;;;7.35;2.47;;;;;;;;;;10370454;28;20101;-60
2022/02/07 18:39:12;;;;;;;13.03;3.53;;;;;;;;;;10369191;28;20254;-60
2022/02/07 18:44:17;;;;;;;17.20;5.15;;;;;;;;;;10368932;28;20472;-60
2022/02/07 18:49:18;;;;;;;9.57;2.97;;;;;;;;;;10370348;28;20533;-60
2022/02/07 18:54:18;;;;;;;11.23;3.10;;;;;;;;;;10366697;28;20133;-60
2022/02/07 18:59:22;;;;;;;9.10;2.85;;;;;;;;;;10365395;28;20451;-60
2022/02/07 19:09:41;;;;;;;12.43;3.38;;;;;;;;;;10369503;28;20269;-60
2022/02/07 19:14:43;;;;;;;9.93;2.90;;;;;;;;;;10369410;28;20280;-60
2022/02/07 19:19:53;;;;;;;9.40;2.80;;;;;;;;;;10369817;28;20026;-60
2022/02/07 19:24:55;;;;;;;6.10;2.28;;;;;;;;;;10369439;28;20026;-60
2022/02/07 19:29:59;;;;;;;7.10;2.30;;;;;;;;;;10368862;28;20101;-60
2022/02/07 19:35:06;;;;;;;3.97;2.28;;;;;;;;;;10367554;28;20026;-60
2022/02/07 19:40:06;;;;;;;6.05;2.35;;;;;;;;;;10367971;28;20037;-60
2022/02/07 19:45:24;;;;;;;4.97;2.60;;;;;;;;;;10368041;28;20030;-60
2022/02/07 19:50:26;;;;;;;8.80;2.35;;;;;;;;;;10367730;28;20026;-60
2022/02/07 19:55:28;;;;;;;9.48;2.65;;;;;;;;;;10367944;28;20465;-60
2022/02/07 20:00:34;;;;;;;7.15;2.38;;;;;;;;;;10363867;28;20022;-59
2022/02/07 20:05:39;;;;;;;6.22;2.38;;;;;;;;;;10368136;28;20034;-57
2022/02/07 20:10:41;;;;;;;9.45;2.63;;;;;;;;;;10364591;28;20470;-59
2022/02/07 20:15:42;;;;;;;9.02;2.85;;;;;;;;;;10366608;28;20052;-59
2022/02/07 20:20:47;;;;;;;6.87;2.17;;;;;;;;;;10367262;28;20034;-59
2022/02/07 20:25:47;;;;;;;3.88;2.38;;;;;;;;;;10365528;28;20459;-59
2022/02/07 20:30:48;;;;;;;5.95;2.00;;;;;;;;;;10367705;28;20402;-59
2022/02/07 20:35:48;;;;;;;5.20;2.03;;;;;;;;;;10374999;28;20033;-59
2022/02/07 20:40:48;;;;;;;3.90;1.80;;;;;;;;;;10375627;28;21144;-59
2022/02/07 20:45:51;;;;;;;5.83;1.97;;;;;;;;;;10374183;28;20481;-59
2022/02/07 20:50:52;;;;;;;6.57;2.13;;;;;;;;;;10374744;28;20780;-59
2022/02/07 20:55:52;;;;;;;4.05;2.00;;;;;;;;;;10375057;28;20029;-59
2022/02/07 21:00:53;;;;;;;8.43;2.20;;;;;;;;;;10375058;28;20036;-59
2022/02/07 21:05:55;;;;;;;9.18;2.30;;;;;;;;;;10374658;28;20150;-59
2022/02/07 21:10:56;;;;;;;4.95;1.75;;;;;;;;;;10367855;28;20033;-59
2022/02/07 21:15:59;;;;;;;4.57;1.97;;;;;;;;;;10374160;28;20172;-59
2022/02/07 21:21:00;;;;;;;6.75;2.10;;;;;;;;;;10374495;28;20439;-59
2022/02/07 21:26:00;;;;;;;3.28;1.70;;;;;;;;;;10373406;28;20378;-59
2022/02/07 21:31:00;;;;;;;4.93;1.75;;;;;;;;;;10373958;28;20053;-59
2022/02/07 21:36:01;;;;;;;3.27;1.67;;;;;;;;;;10373581;28;20057;-59
2022/02/07 21:41:03;;;;;;;2.65;1.52;;;;;;;;;;10373294;28;20464;-59
2022/02/07 21:46:09;;;;;;;2.90;1.60;;;;;;;;;;10373193;28;20385;-59
2022/02/07 21:51:11;;;;;;;4.32;1.75;;;;;;;;;;10373564;28;20026;-59
2022/02/07 21:56:12;;;;;;;5.75;1.70;;;;;;;;;;10372811;28;20017;-60
2022/02/07 22:01:12;;;;;;;3.92;1.50;;;;;;;;;;10371585;28;20038;-60
2022/02/07 22:06:13;;;;;;;6.33;2.00;;;;;;;;;;10372105;28;20060;-60
2022/02/07 22:11:21;;;;;;;8.95;2.35;;;;;;;;;;10368668;28;20784;-59
2022/02/07 22:16:33;;;;;;;22.42;3.10;;;;;;;;;;10352117;28;20081;-60
2022/02/07 22:21:34;;;;;;;9.75;2.25;;;;;;;;;;10370197;28;20413;-59
2022/02/07 22:26:34;;;;;;;11.73;2.40;;;;;;;;;;10370098;28;20033;-59
2022/02/07 22:32:00;;;;;;;7.80;2.30;;;;;;;;;;10369231;28;20489;-59
2022/02/07 22:36:57;;;;;;;9.77;2.03;;;;;;;;;;10369180;28;20446;-59
2022/02/07 22:42:00;;;;;;;11.70;2.25;;;;;;;;;;10368385;28;20494;-59
2022/02/07 22:47:00;;;;;;;13.38;2.22;;;;;;;;;;10367853;28;20466;-59
2022/02/07 22:52:01;;;;;;;8.37;1.90;;;;;;;;;;10366766;28;20026;-59
2022/02/07 22:57:01;;;;;;;9.15;2.28;;;;;;;;;;10368457;28;20434;-60
2022/02/07 23:02:02;;;;;;;6.47;1.77;;;;;;;;;;10369624;28;20021;-61
2022/02/07 23:07:13;;;;;;;4.32;1.63;;;;;;;;;;10369583;28;20393;-58
2022/02/07 23:12:23;;;;;;;4.10;1.45;;;;;;;;;;10367755;28;20585;-52
2022/02/07 23:17:33;;;;;;;3.60;1.77;;;;;;;;;;10366308;28;20108;-59
2022/02/07 23:30:45;;;;;;;2.45;1.40;;;;;;;;;;10368413;28;20022;-59
2022/02/07 23:48:25;;;;;;;5.97;1.90;;;;;;;;;;10369160;28;20435;-56
